sensor_id;sensor_type;location;lat;lon;timestamp;P1;durP1;ratioP1;P2;durP2;ratioP2
63050;SDS011;49136;47.416;19.402;2023-03-23T00:01:03;21.25;;;6.80;;
63050;SDS011;49136;47.416;19.402;2023-03-23T00:03:30;13.85;;;5.53;;
63050;SDS011;49136;47.416;19.402;2023-03-23T00:05:59;12.88;;;5.25;;
63050;SDS011;49136;47.416;19.402;2023-03-23T00:08:29;11.05;;;4.60;;
63050;SDS011;49136;47.416;19.402;2023-03-23T00:10:56;17.25;;;6.22;;
63050;SDS011;49136;47.416;19.402;2023-03-23T00:13:24;19.77;;;5.60;;
63050;SDS011;49136;47.416;19.402;2023-03-23T00:15:51;18.08;;;6.15;;
63050;SDS011;49136;47.416;19.402;2023-03-23T00:18:17;14.23;;;5.95;;
63050;SDS011;49136;47.416;19.402;2023-03-23T00:20:50;15.85;;;5.75;;
63050;SDS011;49136;47.416;19.402;2023-03-23T00:23:17;14.02;;;6.05;;
63050;SDS011;49136;47.416;19.402;2023-03-23T00:25:47;16.02;;;4.28;;
63050;SDS011;49136;47.416;19.402;2023-03-23T00:28:15;11.40;;;4.18;;
63050;SDS011;49136;47.416;19.402;2023-03-23T00:30:41;10.05;;;5.30;;
63050;SDS011;49136;47.416;19.402;2023-03-23T00:33:07;8.18;;;4.10;;
63050;SDS011;49136;47.416;19.402;2023-03-23T00:35:33;18.92;;;5.00;;
63050;SDS011;49136;47.416;19.402;2023-03-23T00:38:01;11.98;;;5.38;;
63050;SDS011;49136;47.416;19.402;2023-03-23T00:40:27;13.65;;;5.18;;
63050;SDS011;49136;47.416;19.402;2023-03-23T00:42:53;10.15;;;4.40;;
63050;SDS011;49136;47.416;19.402;2023-03-23T00:45:18;6.75;;;4.43;;
63050;SDS011;49136;47.416;19.402;2023-03-23T00:47:44;10.43;;;4.63;;
63050;SDS011;49136;47.416;19.402;2023-03-23T00:50:11;12.82;;;4.57;;
63050;SDS011;49136;47.416;19.402;2023-03-23T00:52:38;8.38;;;4.47;;
63050;SDS011;49136;47.416;19.402;2023-03-23T00:55:05;10.10;;;4.32;;
63050;SDS011;49136;47.416;19.402;2023-03-23T00:57:31;7.90;;;4.88;;
63050;SDS011;49136;47.416;19.402;2023-03-23T00:59:56;11.25;;;3.97;;
63050;SDS011;49136;47.416;19.402;2023-03-23T01:02:22;12.05;;;4.97;;
63050;SDS011;49136;47.416;19.402;2023-03-23T01:04:49;11.95;;;3.58;;
63050;SDS011;49136;47.416;19.402;2023-03-23T01:07:17;16.20;;;5.78;;
63050;SDS011;49136;47.416;19.402;2023-03-23T01:09:46;9.15;;;3.45;;
63050;SDS011;49136;47.416;19.402;2023-03-23T01:12:13;12.05;;;5.10;;
63050;SDS011;49136;47.416;19.402;2023-03-23T01:14:39;5.50;;;3.05;;
63050;SDS011;49136;47.416;19.402;2023-03-23T01:17:05;6.60;;;3.35;;
63050;SDS011;49136;47.416;19.402;2023-03-23T01:19:31;8.07;;;3.40;;
63050;SDS011;49136;47.416;19.402;2023-03-23T01:21:56;13.63;;;3.78;;
63050;SDS011;49136;47.416;19.402;2023-03-23T01:24:22;11.25;;;3.80;;
63050;SDS011;49136;47.416;19.402;2023-03-23T01:26:47;16.30;;;4.15;;
63050;SDS011;49136;47.416;19.402;2023-03-23T01:29:14;11.30;;;4.22;;
63050;SDS011;49136;47.416;19.402;2023-03-23T01:31:40;5.30;;;3.22;;
63050;SDS011;49136;47.416;19.402;2023-03-23T01:34:07;9.95;;;4.30;;
63050;SDS011;49136;47.416;19.402;2023-03-23T01:36:33;10.15;;;4.28;;
63050;SDS011;49136;47.416;19.402;2023-03-23T01:39:02;7.63;;;3.13;;
63050;SDS011;49136;47.416;19.402;2023-03-23T01:41:29;15.07;;;4.35;;
63050;SDS011;49136;47.416;19.402;2023-03-23T01:44:01;8.52;;;4.78;;
63050;SDS011;49136;47.416;19.402;2023-03-23T01:46:28;11.63;;;3.97;;
63050;SDS011;49136;47.416;19.402;2023-03-23T01:48:55;12.00;;;4.28;;
63050;SDS011;49136;47.416;19.402;2023-03-23T01:51:23;9.85;;;3.63;;
63050;SDS011;49136;47.416;19.402;2023-03-23T01:53:52;12.10;;;5.32;;
63050;SDS011;49136;47.416;19.402;2023-03-23T01:56:21;12.77;;;4.30;;
63050;SDS011;49136;47.416;19.402;2023-03-23T01:58:54;9.43;;;3.13;;
63050;SDS011;49136;47.416;19.402;2023-03-23T02:01:21;6.65;;;3.72;;
63050;SDS011;49136;47.416;19.402;2023-03-23T02:03:50;10.13;;;4.45;;
63050;SDS011;49136;47.416;19.402;2023-03-23T02:06:17;11.80;;;4.80;;
63050;SDS011;49136;47.416;19.402;2023-03-23T02:08:43;12.43;;;4.25;;
63050;SDS011;49136;47.416;19.402;2023-03-23T02:11:13;11.75;;;5.30;;
63050;SDS011;49136;47.416;19.402;2023-03-23T02:13:40;6.57;;;3.40;;
63050;SDS011;49136;47.416;19.402;2023-03-23T02:18:50;17.42;;;5.60;;
63050;SDS011;49136;47.416;19.402;2023-03-23T02:27:05;10.07;;;4.75;;
63050;SDS011;49136;47.416;19.402;2023-03-23T02:35:11;11.25;;;4.30;;
63050;SDS011;49136;47.416;19.402;2023-03-23T02:37:46;10.80;;;4.50;;
63050;SDS011;49136;47.416;19.402;2023-03-23T02:40:17;12.95;;;4.38;;
63050;SDS011;49136;47.416;19.402;2023-03-23T02:42:47;6.82;;;3.70;;
63050;SDS011;49136;47.416;19.402;2023-03-23T02:45:16;15.93;;;5.40;;
63050;SDS011;49136;47.416;19.402;2023-03-23T02:47:45;12.10;;;5.40;;
63050;SDS011;49136;47.416;19.402;2023-03-23T02:50:14;11.65;;;5.32;;
63050;SDS011;49136;47.416;19.402;2023-03-23T02:52:41;8.50;;;3.78;;
63050;SDS011;49136;47.416;19.402;2023-03-23T02:55:09;11.93;;;3.63;;
63050;SDS011;49136;47.416;19.402;2023-03-23T02:57:36;9.23;;;3.83;;
63050;SDS011;49136;47.416;19.402;2023-03-23T03:00:04;11.23;;;4.15;;
63050;SDS011;49136;47.416;19.402;2023-03-23T03:02:35;8.57;;;4.03;;
63050;SDS011;49136;47.416;19.402;2023-03-23T03:05:04;14.50;;;4.47;;
63050;SDS011;49136;47.416;19.402;2023-03-23T03:07:40;9.15;;;3.75;;
63050;SDS011;49136;47.416;19.402;2023-03-23T03:10:23;13.18;;;5.68;;
63050;SDS011;49136;47.416;19.402;2023-03-23T03:12:59;13.38;;;5.18;;
63050;SDS011;49136;47.416;19.402;2023-03-23T03:16:00;9.05;;;5.45;;
63050;SDS011;49136;47.416;19.402;2023-03-23T03:18:32;11.93;;;4.78;;
63050;SDS011;49136;47.416;19.402;2023-03-23T03:21:04;15.00;;;6.00;;
63050;SDS011;49136;47.416;19.402;2023-03-23T03:23:34;7.25;;;4.40;;
63050;SDS011;49136;47.416;19.402;2023-03-23T03:26:02;15.00;;;5.10;;
63050;SDS011;49136;47.416;19.402;2023-03-23T03:28:30;9.77;;;4.97;;
63050;SDS011;49136;47.416;19.402;2023-03-23T03:30:57;8.57;;;4.15;;
63050;SDS011;49136;47.416;19.402;2023-03-23T03:33:27;12.18;;;4.53;;
63050;SDS011;49136;47.416;19.402;2023-03-23T03:35:56;21.90;;;7.43;;
63050;SDS011;49136;47.416;19.402;2023-03-23T03:38:24;13.82;;;4.97;;
63050;SDS011;49136;47.416;19.402;2023-03-23T03:40:50;17.38;;;5.70;;
63050;SDS011;49136;47.416;19.402;2023-03-23T03:43:16;12.43;;;6.20;;
63050;SDS011;49136;47.416;19.402;2023-03-23T03:45:43;18.85;;;6.43;;
63050;SDS011;49136;47.416;19.402;2023-03-23T03:48:09;9.35;;;5.03;;
63050;SDS011;49136;47.416;19.402;2023-03-23T03:50:35;26.45;;;5.50;;
63050;SDS011;49136;47.416;19.402;2023-03-23T03:53:01;9.50;;;4.70;;
63050;SDS011;49136;47.416;19.402;2023-03-23T03:55:26;15.43;;;5.38;;
63050;SDS011;49136;47.416;19.402;2023-03-23T03:57:53;12.70;;;5.75;;
63050;SDS011;49136;47.416;19.402;2023-03-23T04:00:22;11.60;;;5.18;;
63050;SDS011;49136;47.416;19.402;2023-03-23T04:02:49;17.60;;;5.68;;
63050;SDS011;49136;47.416;19.402;2023-03-23T04:05:20;13.77;;;5.10;;
63050;SDS011;49136;47.416;19.402;2023-03-23T04:07:46;12.50;;;5.00;;
63050;SDS011;49136;47.416;19.402;2023-03-23T04:10:14;15.80;;;5.78;;
63050;SDS011;49136;47.416;19.402;2023-03-23T04:12:40;10.88;;;5.55;;
63050;SDS011;49136;47.416;19.402;2023-03-23T04:15:06;7.90;;;4.43;;
63050;SDS011;49136;47.416;19.402;2023-03-23T04:17:32;9.88;;;4.75;;
63050;SDS011;49136;47.416;19.402;2023-03-23T04:19:59;12.88;;;4.57;;
63050;SDS011;49136;47.416;19.402;2023-03-23T04:22:25;16.98;;;6.35;;
63050;SDS011;49136;47.416;19.402;2023-03-23T04:24:55;11.73;;;4.50;;
63050;SDS011;49136;47.416;19.402;2023-03-23T04:27:26;15.88;;;5.32;;
63050;SDS011;49136;47.416;19.402;2023-03-23T04:29:53;9.80;;;5.75;;
63050;SDS011;49136;47.416;19.402;2023-03-23T04:32:20;7.53;;;4.00;;
63050;SDS011;49136;47.416;19.402;2023-03-23T04:34:46;11.50;;;5.28;;
63050;SDS011;49136;47.416;19.402;2023-03-23T04:37:11;19.67;;;5.53;;
63050;SDS011;49136;47.416;19.402;2023-03-23T04:39:38;13.35;;;6.63;;
63050;SDS011;49136;47.416;19.402;2023-03-23T04:42:04;19.65;;;5.60;;
63050;SDS011;49136;47.416;19.402;2023-03-23T04:44:30;11.43;;;5.45;;
63050;SDS011;49136;47.416;19.402;2023-03-23T04:46:57;10.48;;;5.38;;
63050;SDS011;49136;47.416;19.402;2023-03-23T04:49:26;24.63;;;7.15;;
63050;SDS011;49136;47.416;19.402;2023-03-23T04:51:52;21.67;;;5.95;;
63050;SDS011;49136;47.416;19.402;2023-03-23T04:54:17;18.20;;;7.47;;
63050;SDS011;49136;47.416;19.402;2023-03-23T04:56:43;18.52;;;7.28;;
63050;SDS011;49136;47.416;19.402;2023-03-23T04:59:08;25.02;;;7.80;;
63050;SDS011;49136;47.416;19.402;2023-03-23T05:01:34;19.40;;;8.35;;
63050;SDS011;49136;47.416;19.402;2023-03-23T05:04:03;20.92;;;9.38;;
63050;SDS011;49136;47.416;19.402;2023-03-23T05:06:29;21.95;;;8.45;;
63050;SDS011;49136;47.416;19.402;2023-03-23T05:08:54;18.15;;;8.07;;
63050;SDS011;49136;47.416;19.402;2023-03-23T05:11:20;19.48;;;8.77;;
63050;SDS011;49136;47.416;19.402;2023-03-23T05:13:46;25.05;;;9.65;;
63050;SDS011;49136;47.416;19.402;2023-03-23T05:16:11;17.90;;;8.55;;
63050;SDS011;49136;47.416;19.402;2023-03-23T05:18:37;21.20;;;8.30;;
63050;SDS011;49136;47.416;19.402;2023-03-23T05:21:03;27.95;;;10.50;;
63050;SDS011;49136;47.416;19.402;2023-03-23T05:23:29;20.27;;;8.52;;
63050;SDS011;49136;47.416;19.402;2023-03-23T05:25:56;28.60;;;8.98;;
63050;SDS011;49136;47.416;19.402;2023-03-23T05:28:25;33.70;;;10.07;;
63050;SDS011;49136;47.416;19.402;2023-03-23T05:30:51;40.88;;;11.68;;
63050;SDS011;49136;47.416;19.402;2023-03-23T05:33:18;33.92;;;11.13;;
63050;SDS011;49136;47.416;19.402;2023-03-23T05:35:45;20.77;;;9.75;;
63050;SDS011;49136;47.416;19.402;2023-03-23T05:38:12;22.40;;;9.52;;
63050;SDS011;49136;47.416;19.402;2023-03-23T05:40:39;26.55;;;9.88;;
63050;SDS011;49136;47.416;19.402;2023-03-23T05:43:06;19.05;;;8.57;;
63050;SDS011;49136;47.416;19.402;2023-03-23T05:45:32;29.40;;;8.82;;
63050;SDS011;49136;47.416;19.402;2023-03-23T05:47:58;21.00;;;7.75;;
63050;SDS011;49136;47.416;19.402;2023-03-23T05:50:24;12.95;;;5.55;;
63050;SDS011;49136;47.416;19.402;2023-03-23T05:52:50;18.52;;;6.20;;
63050;SDS011;49136;47.416;19.402;2023-03-23T05:55:16;7.82;;;4.47;;
63050;SDS011;49136;47.416;19.402;2023-03-23T05:57:41;9.70;;;4.38;;
63050;SDS011;49136;47.416;19.402;2023-03-23T06:00:07;13.57;;;5.15;;
63050;SDS011;49136;47.416;19.402;2023-03-23T06:02:40;13.15;;;3.92;;
63050;SDS011;49136;47.416;19.402;2023-03-23T06:05:10;13.77;;;4.97;;
63050;SDS011;49136;47.416;19.402;2023-03-23T06:07:36;25.27;;;5.50;;
63050;SDS011;49136;47.416;19.402;2023-03-23T06:10:03;8.63;;;4.03;;
63050;SDS011;49136;47.416;19.402;2023-03-23T06:12:30;13.75;;;5.55;;
63050;SDS011;49136;47.416;19.402;2023-03-23T06:14:56;15.40;;;6.10;;
63050;SDS011;49136;47.416;19.402;2023-03-23T06:17:22;10.90;;;4.53;;
63050;SDS011;49136;47.416;19.402;2023-03-23T06:19:47;12.38;;;5.25;;
63050;SDS011;49136;47.416;19.402;2023-03-23T06:22:15;10.48;;;5.07;;
63050;SDS011;49136;47.416;19.402;2023-03-23T06:24:41;15.48;;;6.70;;
63050;SDS011;49136;47.416;19.402;2023-03-23T06:27:07;24.55;;;6.47;;
63050;SDS011;49136;47.416;19.402;2023-03-23T06:29:34;20.88;;;6.43;;
63050;SDS011;49136;47.416;19.402;2023-03-23T06:32:00;22.15;;;7.32;;
63050;SDS011;49136;47.416;19.402;2023-03-23T06:34:27;19.75;;;6.80;;
63050;SDS011;49136;47.416;19.402;2023-03-23T06:36:53;18.75;;;6.90;;
63050;SDS011;49136;47.416;19.402;2023-03-23T06:39:19;21.90;;;8.25;;
63050;SDS011;49136;47.416;19.402;2023-03-23T06:41:44;22.10;;;8.23;;
63050;SDS011;49136;47.416;19.402;2023-03-23T06:44:10;12.93;;;6.95;;
63050;SDS011;49136;47.416;19.402;2023-03-23T06:46:38;23.13;;;9.13;;
63050;SDS011;49136;47.416;19.402;2023-03-23T06:49:05;30.45;;;9.07;;
63050;SDS011;49136;47.416;19.402;2023-03-23T06:51:31;22.77;;;8.30;;
63050;SDS011;49136;47.416;19.402;2023-03-23T06:53:56;30.00;;;8.88;;
63050;SDS011;49136;47.416;19.402;2023-03-23T06:56:22;31.60;;;7.82;;
63050;SDS011;49136;47.416;19.402;2023-03-23T06:58:48;18.42;;;7.85;;
63050;SDS011;49136;47.416;19.402;2023-03-23T07:01:14;18.48;;;8.05;;
63050;SDS011;49136;47.416;19.402;2023-03-23T07:03:41;19.88;;;7.15;;
63050;SDS011;49136;47.416;19.402;2023-03-23T07:06:07;19.67;;;7.53;;
63050;SDS011;49136;47.416;19.402;2023-03-23T07:08:34;19.08;;;8.32;;
63050;SDS011;49136;47.416;19.402;2023-03-23T07:11:00;21.23;;;7.40;;
63050;SDS011;49136;47.416;19.402;2023-03-23T07:13:25;20.25;;;8.85;;
63050;SDS011;49136;47.416;19.402;2023-03-23T07:15:51;21.90;;;8.80;;
63050;SDS011;49136;47.416;19.402;2023-03-23T07:18:17;24.88;;;9.52;;
63050;SDS011;49136;47.416;19.402;2023-03-23T07:20:42;27.95;;;8.93;;
63050;SDS011;49136;47.416;19.402;2023-03-23T07:23:08;18.48;;;8.43;;
63050;SDS011;49136;47.416;19.402;2023-03-23T07:25:34;22.73;;;7.78;;
63050;SDS011;49136;47.416;19.402;2023-03-23T07:28:00;26.35;;;7.68;;
63050;SDS011;49136;47.416;19.402;2023-03-23T07:30:27;20.58;;;7.63;;
63050;SDS011;49136;47.416;19.402;2023-03-23T07:32:54;16.60;;;7.32;;
63050;SDS011;49136;47.416;19.402;2023-03-23T07:35:20;28.83;;;8.93;;
63050;SDS011;49136;47.416;19.402;2023-03-23T07:37:46;33.80;;;8.85;;
63050;SDS011;49136;47.416;19.402;2023-03-23T07:40:14;16.85;;;7.95;;
63050;SDS011;49136;47.416;19.402;2023-03-23T07:42:44;23.02;;;7.88;;
63050;SDS011;49136;47.416;19.402;2023-03-23T07:45:11;16.92;;;6.95;;
63050;SDS011;49136;47.416;19.402;2023-03-23T07:47:38;20.85;;;9.20;;
63050;SDS011;49136;47.416;19.402;2023-03-23T07:50:05;14.70;;;6.80;;
63050;SDS011;49136;47.416;19.402;2023-03-23T07:52:31;18.05;;;7.55;;
63050;SDS011;49136;47.416;19.402;2023-03-23T07:54:58;19.95;;;8.65;;
63050;SDS011;49136;47.416;19.402;2023-03-23T07:57:23;17.83;;;8.25;;
63050;SDS011;49136;47.416;19.402;2023-03-23T07:59:48;20.05;;;8.38;;
63050;SDS011;49136;47.416;19.402;2023-03-23T08:02:14;17.85;;;8.13;;
63050;SDS011;49136;47.416;19.402;2023-03-23T08:04:40;24.90;;;9.07;;
63050;SDS011;49136;47.416;19.402;2023-03-23T08:07:05;20.67;;;7.47;;
63050;SDS011;49136;47.416;19.402;2023-03-23T08:09:31;25.25;;;6.85;;
63050;SDS011;49136;47.416;19.402;2023-03-23T08:11:56;15.38;;;7.20;;
63050;SDS011;49136;47.416;19.402;2023-03-23T08:14:22;18.42;;;6.47;;
63050;SDS011;49136;47.416;19.402;2023-03-23T08:16:51;15.23;;;6.72;;
63050;SDS011;49136;47.416;19.402;2023-03-23T08:19:17;15.93;;;7.30;;
63050;SDS011;49136;47.416;19.402;2023-03-23T08:21:43;16.77;;;6.13;;
63050;SDS011;49136;47.416;19.402;2023-03-23T08:24:08;13.60;;;5.93;;
63050;SDS011;49136;47.416;19.402;2023-03-23T08:26:36;14.50;;;6.68;;
63050;SDS011;49136;47.416;19.402;2023-03-23T08:29:02;16.23;;;6.97;;
63050;SDS011;49136;47.416;19.402;2023-03-23T08:31:29;13.45;;;5.63;;
63050;SDS011;49136;47.416;19.402;2023-03-23T08:33:54;11.88;;;5.80;;
63050;SDS011;49136;47.416;19.402;2023-03-23T08:36:21;14.93;;;7.15;;
63050;SDS011;49136;47.416;19.402;2023-03-23T08:38:47;13.95;;;5.28;;
63050;SDS011;49136;47.416;19.402;2023-03-23T08:41:13;13.35;;;6.40;;
63050;SDS011;49136;47.416;19.402;2023-03-23T08:43:39;8.13;;;4.22;;
63050;SDS011;49136;47.416;19.402;2023-03-23T08:46:05;8.07;;;4.97;;
63050;SDS011;49136;47.416;19.402;2023-03-23T08:48:34;7.28;;;4.35;;
63050;SDS011;49136;47.416;19.402;2023-03-23T08:51:00;9.90;;;4.38;;
63050;SDS011;49136;47.416;19.402;2023-03-23T08:53:26;8.10;;;4.95;;
63050;SDS011;49136;47.416;19.402;2023-03-23T08:55:55;10.10;;;4.38;;
63050;SDS011;49136;47.416;19.402;2023-03-23T08:58:21;6.95;;;3.97;;
63050;SDS011;49136;47.416;19.402;2023-03-23T09:00:47;11.02;;;4.28;;
63050;SDS011;49136;47.416;19.402;2023-03-23T09:03:13;7.68;;;3.90;;
63050;SDS011;49136;47.416;19.402;2023-03-23T09:05:40;7.53;;;4.15;;
63050;SDS011;49136;47.416;19.402;2023-03-23T09:08:10;8.00;;;4.10;;
63050;SDS011;49136;47.416;19.402;2023-03-23T09:10:39;7.97;;;3.88;;
63050;SDS011;49136;47.416;19.402;2023-03-23T09:13:05;8.43;;;4.13;;
63050;SDS011;49136;47.416;19.402;2023-03-23T09:15:31;8.95;;;4.38;;
63050;SDS011;49136;47.416;19.402;2023-03-23T09:17:57;12.13;;;3.65;;
63050;SDS011;49136;47.416;19.402;2023-03-23T09:20:24;7.22;;;4.07;;
63050;SDS011;49136;47.416;19.402;2023-03-23T09:22:52;6.93;;;3.83;;
63050;SDS011;49136;47.416;19.402;2023-03-23T09:25:19;10.25;;;3.67;;
63050;SDS011;49136;47.416;19.402;2023-03-23T09:27:48;12.10;;;4.25;;
63050;SDS011;49136;47.416;19.402;2023-03-23T09:30:18;7.32;;;3.70;;
63050;SDS011;49136;47.416;19.402;2023-03-23T09:32:45;5.90;;;3.25;;
63050;SDS011;49136;47.416;19.402;2023-03-23T09:35:13;7.03;;;3.50;;
63050;SDS011;49136;47.416;19.402;2023-03-23T09:37:42;6.63;;;3.28;;
63050;SDS011;49136;47.416;19.402;2023-03-23T09:40:16;7.30;;;3.33;;
63050;SDS011;49136;47.416;19.402;2023-03-23T09:45:44;7.15;;;3.58;;
63050;SDS011;49136;47.416;19.402;2023-03-23T09:51:01;7.53;;;3.45;;
63050;SDS011;49136;47.416;19.402;2023-03-23T09:53:35;5.18;;;3.15;;
63050;SDS011;49136;47.416;19.402;2023-03-23T09:56:08;9.05;;;3.28;;
63050;SDS011;49136;47.416;19.402;2023-03-23T09:58:58;5.25;;;2.88;;
63050;SDS011;49136;47.416;19.402;2023-03-23T10:01:26;6.80;;;2.65;;
63050;SDS011;49136;47.416;19.402;2023-03-23T10:04:06;4.93;;;3.03;;
63050;SDS011;49136;47.416;19.402;2023-03-23T10:06:37;5.03;;;2.40;;
63050;SDS011;49136;47.416;19.402;2023-03-23T10:09:03;3.95;;;2.53;;
63050;SDS011;49136;47.416;19.402;2023-03-23T10:11:36;7.20;;;2.47;;
63050;SDS011;49136;47.416;19.402;2023-03-23T10:21:56;8.75;;;2.70;;
63050;SDS011;49136;47.416;19.402;2023-03-23T10:24:29;10.48;;;3.28;;
63050;SDS011;49136;47.416;19.402;2023-03-23T10:30:07;4.78;;;2.70;;
63050;SDS011;49136;47.416;19.402;2023-03-23T10:32:43;5.30;;;2.97;;
63050;SDS011;49136;47.416;19.402;2023-03-23T10:35:16;3.45;;;2.22;;
63050;SDS011;49136;47.416;19.402;2023-03-23T10:37:51;10.02;;;2.40;;
63050;SDS011;49136;47.416;19.402;2023-03-23T10:40:23;5.00;;;2.70;;
63050;SDS011;49136;47.416;19.402;2023-03-23T10:42:52;11.30;;;2.37;;
63050;SDS011;49136;47.416;19.402;2023-03-23T10:45:26;9.55;;;2.00;;
63050;SDS011;49136;47.416;19.402;2023-03-23T10:50:25;3.95;;;2.20;;
63050;SDS011;49136;47.416;19.402;2023-03-23T10:52:54;2.30;;;1.60;;
63050;SDS011;49136;47.416;19.402;2023-03-23T10:55:23;2.08;;;1.70;;
63050;SDS011;49136;47.416;19.402;2023-03-23T10:58:00;7.00;;;2.17;;
63050;SDS011;49136;47.416;19.402;2023-03-23T11:00:26;2.70;;;1.67;;
63050;SDS011;49136;47.416;19.402;2023-03-23T11:08:03;6.10;;;1.23;;
63050;SDS011;49136;47.416;19.402;2023-03-23T11:13:02;4.75;;;1.73;;
63050;SDS011;49136;47.416;19.402;2023-03-23T11:15:33;2.20;;;1.60;;
63050;SDS011;49136;47.416;19.402;2023-03-23T11:18:06;3.15;;;1.65;;
63050;SDS011;49136;47.416;19.402;2023-03-23T11:20:37;3.88;;;1.50;;
63050;SDS011;49136;47.416;19.402;2023-03-23T11:23:27;2.50;;;1.73;;
63050;SDS011;49136;47.416;19.402;2023-03-23T11:31:19;6.05;;;1.58;;
63050;SDS011;49136;47.416;19.402;2023-03-23T11:36:19;4.85;;;2.25;;
63050;SDS011;49136;47.416;19.402;2023-03-23T11:38:45;1.55;;;1.30;;
63050;SDS011;49136;47.416;19.402;2023-03-23T11:41:12;3.22;;;1.55;;
63050;SDS011;49136;47.416;19.402;2023-03-23T11:43:44;2.95;;;1.70;;
63050;SDS011;49136;47.416;19.402;2023-03-23T11:46:15;5.18;;;1.45;;
63050;SDS011;49136;47.416;19.402;2023-03-23T11:49:05;3.20;;;1.38;;
63050;SDS011;49136;47.416;19.402;2023-03-23T11:51:48;2.17;;;1.48;;
63050;SDS011;49136;47.416;19.402;2023-03-23T11:56:51;1.40;;;1.10;;
63050;SDS011;49136;47.416;19.402;2023-03-23T11:59:18;8.75;;;1.50;;
63050;SDS011;49136;47.416;19.402;2023-03-23T12:02:15;2.13;;;1.38;;
63050;SDS011;49136;47.416;19.402;2023-03-23T12:20:52;4.00;;;1.77;;
63050;SDS011;49136;47.416;19.402;2023-03-23T12:23:22;3.42;;;1.65;;
63050;SDS011;49136;47.416;19.402;2023-03-23T12:31:39;2.97;;;1.77;;
63050;SDS011;49136;47.416;19.402;2023-03-23T12:34:44;3.47;;;1.70;;
63050;SDS011;49136;47.416;19.402;2023-03-23T12:48:15;2.65;;;1.88;;
63050;SDS011;49136;47.416;19.402;2023-03-23T12:50:58;3.70;;;1.85;;
63050;SDS011;49136;47.416;19.402;2023-03-23T13:01:47;3.38;;;1.90;;
63050;SDS011;49136;47.416;19.402;2023-03-23T13:04:21;1.92;;;1.65;;
63050;SDS011;49136;47.416;19.402;2023-03-23T13:07:18;6.57;;;2.58;;
63050;SDS011;49136;47.416;19.402;2023-03-23T13:12:27;3.83;;;1.90;;
63050;SDS011;49136;47.416;19.402;2023-03-23T13:15:00;2.42;;;1.27;;
63050;SDS011;49136;47.416;19.402;2023-03-23T13:17:44;3.05;;;1.88;;
63050;SDS011;49136;47.416;19.402;2023-03-23T13:23:28;4.75;;;1.63;;
63050;SDS011;49136;47.416;19.402;2023-03-23T13:26:02;4.60;;;1.65;;
63050;SDS011;49136;47.416;19.402;2023-03-23T13:28:33;3.55;;;2.38;;
63050;SDS011;49136;47.416;19.402;2023-03-23T13:31:13;6.22;;;1.88;;
63050;SDS011;49136;47.416;19.402;2023-03-23T13:33:51;3.50;;;1.63;;
63050;SDS011;49136;47.416;19.402;2023-03-23T13:36:29;6.03;;;2.10;;
63050;SDS011;49136;47.416;19.402;2023-03-23T13:38:55;4.60;;;2.13;;
63050;SDS011;49136;47.416;19.402;2023-03-23T13:41:24;6.80;;;2.60;;
63050;SDS011;49136;47.416;19.402;2023-03-23T13:43:51;5.40;;;2.72;;
63050;SDS011;49136;47.416;19.402;2023-03-23T13:46:24;3.00;;;2.17;;
63050;SDS011;49136;47.416;19.402;2023-03-23T13:51:46;2.72;;;1.80;;
63050;SDS011;49136;47.416;19.402;2023-03-23T13:54:40;14.02;;;2.13;;
63050;SDS011;49136;47.416;19.402;2023-03-23T14:08:24;2.53;;;1.40;;
63050;SDS011;49136;47.416;19.402;2023-03-23T14:11:20;8.23;;;2.70;;
63050;SDS011;49136;47.416;19.402;2023-03-23T14:16:19;5.18;;;2.58;;
63050;SDS011;49136;47.416;19.402;2023-03-23T14:21:39;8.02;;;2.13;;
63050;SDS011;49136;47.416;19.402;2023-03-23T14:24:11;2.33;;;1.77;;
63050;SDS011;49136;47.416;19.402;2023-03-23T14:26:40;7.38;;;1.70;;
63050;SDS011;49136;47.416;19.402;2023-03-23T14:29:09;4.80;;;2.20;;
63050;SDS011;49136;47.416;19.402;2023-03-23T14:31:36;2.33;;;1.35;;
63050;SDS011;49136;47.416;19.402;2023-03-23T14:34:15;9.77;;;1.92;;
63050;SDS011;49136;47.416;19.402;2023-03-23T14:36:44;3.40;;;1.60;;
63050;SDS011;49136;47.416;19.402;2023-03-23T14:39:29;3.13;;;1.83;;
63050;SDS011;49136;47.416;19.402;2023-03-23T14:42:00;4.82;;;1.98;;
63050;SDS011;49136;47.416;19.402;2023-03-23T14:44:37;7.13;;;2.25;;
63050;SDS011;49136;47.416;19.402;2023-03-23T14:47:06;3.53;;;1.85;;
63050;SDS011;49136;47.416;19.402;2023-03-23T14:52:14;2.80;;;1.52;;
63050;SDS011;49136;47.416;19.402;2023-03-23T14:54:41;5.90;;;1.77;;
63050;SDS011;49136;47.416;19.402;2023-03-23T14:57:13;5.95;;;2.38;;
63050;SDS011;49136;47.416;19.402;2023-03-23T14:59:42;10.55;;;2.40;;
63050;SDS011;49136;47.416;19.402;2023-03-23T15:02:14;10.98;;;1.70;;
63050;SDS011;49136;47.416;19.402;2023-03-23T15:04:50;3.65;;;1.50;;
63050;SDS011;49136;47.416;19.402;2023-03-23T15:07:23;3.45;;;1.75;;
63050;SDS011;49136;47.416;19.402;2023-03-23T15:10:08;4.30;;;1.92;;
63050;SDS011;49136;47.416;19.402;2023-03-23T15:12:39;3.72;;;1.70;;
63050;SDS011;49136;47.416;19.402;2023-03-23T15:15:05;3.55;;;1.73;;
63050;SDS011;49136;47.416;19.402;2023-03-23T15:17:40;3.80;;;1.80;;
63050;SDS011;49136;47.416;19.402;2023-03-23T15:23:22;6.37;;;1.83;;
63050;SDS011;49136;47.416;19.402;2023-03-23T15:25:55;4.07;;;1.58;;
63050;SDS011;49136;47.416;19.402;2023-03-23T15:28:28;16.98;;;1.98;;
63050;SDS011;49136;47.416;19.402;2023-03-23T15:31:00;3.20;;;1.73;;
63050;SDS011;49136;47.416;19.402;2023-03-23T15:33:33;2.17;;;1.20;;
63050;SDS011;49136;47.416;19.402;2023-03-23T15:36:04;3.92;;;2.30;;
63050;SDS011;49136;47.416;19.402;2023-03-23T15:38:33;5.28;;;1.42;;
63050;SDS011;49136;47.416;19.402;2023-03-23T15:41:01;2.28;;;1.35;;
63050;SDS011;49136;47.416;19.402;2023-03-23T15:43:33;3.65;;;1.50;;
63050;SDS011;49136;47.416;19.402;2023-03-23T15:46:02;2.10;;;1.33;;
63050;SDS011;49136;47.416;19.402;2023-03-23T15:48:54;3.35;;;1.55;;
63050;SDS011;49136;47.416;19.402;2023-03-23T15:51:33;2.30;;;1.45;;
63050;SDS011;49136;47.416;19.402;2023-03-23T15:53:58;8.25;;;2.00;;
63050;SDS011;49136;47.416;19.402;2023-03-23T15:56:24;15.18;;;1.98;;
63050;SDS011;49136;47.416;19.402;2023-03-23T15:58:51;10.98;;;2.40;;
63050;SDS011;49136;47.416;19.402;2023-03-23T16:01:17;12.65;;;2.95;;
63050;SDS011;49136;47.416;19.402;2023-03-23T16:03:47;18.88;;;5.95;;
63050;SDS011;49136;47.416;19.402;2023-03-23T16:06:13;15.88;;;3.67;;
63050;SDS011;49136;47.416;19.402;2023-03-23T16:08:41;5.53;;;2.97;;
63050;SDS011;49136;47.416;19.402;2023-03-23T16:11:08;5.47;;;2.38;;
63050;SDS011;49136;47.416;19.402;2023-03-23T16:13:36;6.85;;;2.13;;
63050;SDS011;49136;47.416;19.402;2023-03-23T16:16:02;3.22;;;1.55;;
63050;SDS011;49136;47.416;19.402;2023-03-23T16:18:29;3.40;;;1.40;;
63050;SDS011;49136;47.416;19.402;2023-03-23T16:20:55;6.15;;;2.72;;
63050;SDS011;49136;47.416;19.402;2023-03-23T16:23:21;4.25;;;2.13;;
63050;SDS011;49136;47.416;19.402;2023-03-23T16:25:47;3.22;;;1.90;;
63050;SDS011;49136;47.416;19.402;2023-03-23T16:28:13;9.93;;;1.90;;
63050;SDS011;49136;47.416;19.402;2023-03-23T16:30:40;3.45;;;1.63;;
63050;SDS011;49136;47.416;19.402;2023-03-23T16:33:06;3.10;;;2.20;;
63050;SDS011;49136;47.416;19.402;2023-03-23T16:35:32;3.08;;;1.85;;
63050;SDS011;49136;47.416;19.402;2023-03-23T16:37:57;12.57;;;2.78;;
63050;SDS011;49136;47.416;19.402;2023-03-23T16:40:23;6.00;;;2.28;;
63050;SDS011;49136;47.416;19.402;2023-03-23T16:42:49;6.50;;;2.67;;